createdAt,value
2022-09-01T00:00:11.339Z,41.20
2022-09-01T00:02:38.508Z,36.13
2022-09-01T00:05:07.701Z,33.25
2022-09-01T00:07:35.593Z,27.50
2022-09-01T00:10:07.965Z,32.58
2022-09-01T00:12:35.528Z,37.80
2022-09-01T00:15:04.129Z,38.00
2022-09-01T00:17:31.341Z,37.55
2022-09-01T00:22:28.287Z,46.63
2022-09-01T00:24:56.793Z,37.70
2022-09-01T00:27:27.907Z,30.10
2022-09-01T00:29:59.653Z,29.42
2022-09-01T00:32:27.931Z,31.23
2022-09-01T00:34:55.218Z,33.88
2022-09-01T00:37:22.479Z,37.05
2022-09-01T00:39:50.092Z,38.53
2022-09-01T00:42:17.329Z,34.28
2022-09-01T00:44:44.565Z,34.60
2022-09-01T00:47:13.699Z,47.90
2022-09-01T00:49:49.663Z,53.10
2022-09-01T00:52:29.611Z,41.42
2022-09-01T00:55:01.657Z,37.10
2022-09-01T00:57:29.033Z,39.53
2022-09-01T01:00:11.988Z,34.65
2022-09-01T01:02:41.450Z,30.35
2022-09-01T01:05:11.098Z,33.50
2022-09-01T01:07:47.992Z,37.83
2022-09-01T01:10:19.132Z,31.92
2022-09-01T01:12:47.242Z,29.30
2022-09-01T01:15:15.551Z,30.77
2022-09-01T01:17:42.596Z,30.52
2022-09-01T01:20:30.043Z,31.70
2022-09-01T01:25:34.930Z,29.58
2022-09-01T01:28:16.041Z,29.90
2022-09-01T01:30:51.275Z,35.30
2022-09-01T01:33:22.653Z,34.50
2022-09-01T01:35:52.800Z,29.25
2022-09-01T01:38:22.986Z,32.17
2022-09-01T01:40:55.074Z,28.33
2022-09-01T01:43:24.879Z,32.63
2022-09-01T01:45:54.909Z,35.30
2022-09-01T01:48:27.336Z,26.23
2022-09-01T01:50:57.474Z,25.75
2022-09-01T01:53:24.590Z,27.55
2022-09-01T01:55:52.789Z,35.30
2022-09-01T01:58:24.722Z,25.40
2022-09-01T02:00:54.998Z,23.23
2022-09-01T02:03:25.519Z,23.80
2022-09-01T02:05:54.717Z,24.20
2022-09-01T02:08:26.304Z,32.75
2022-09-01T02:10:55.531Z,25.42
2022-09-01T02:13:31.272Z,28.98
2022-09-01T02:16:07.938Z,27.35
2022-09-01T02:18:38.760Z,23.35
2022-09-01T02:21:15.070Z,26.08
2022-09-01T02:23:43.613Z,32.10
2022-09-01T02:26:16.468Z,33.38
2022-09-01T02:28:55.748Z,46.35
2022-09-01T02:31:29.722Z,33.17
2022-09-01T02:34:01.257Z,36.05
2022-09-01T02:36:29.216Z,31.23
2022-09-01T02:38:56.830Z,23.88
2022-09-01T02:41:29.470Z,27.35
2022-09-01T02:43:57.851Z,25.60
2022-09-01T02:46:25.334Z,26.83
2022-09-01T02:48:53.481Z,24.85
2022-09-01T02:51:25.821Z,25.25
2022-09-01T02:53:54.182Z,24.70
2022-09-01T02:56:25.293Z,28.70
2022-09-01T02:58:55.133Z,31.98
2022-09-01T03:01:29.749Z,27.88
2022-09-01T03:04:11.307Z,29.67
2022-09-01T03:06:39.495Z,29.17
2022-09-01T03:09:11.208Z,30.90
2022-09-01T03:11:41.100Z,27.23
2022-09-01T03:14:08.815Z,26.10
2022-09-01T03:16:38.182Z,37.53
2022-09-01T03:19:11.424Z,31.33
2022-09-01T03:21:43.414Z,30.90
2022-09-01T03:24:15.356Z,30.88
2022-09-01T03:26:44.204Z,30.67
2022-09-01T03:29:11.351Z,26.95
2022-09-01T03:31:39.130Z,24.65
2022-09-01T03:34:08.836Z,34.30
2022-09-01T03:36:40.443Z,27.75
2022-09-01T03:39:14.632Z,27.60
2022-09-01T03:41:45.283Z,32.38
2022-09-01T03:44:16.412Z,33.13
2022-09-01T03:46:46.306Z,27.13
2022-09-01T03:49:15.655Z,25.27
2022-09-01T03:51:45.147Z,30.02
2022-09-01T03:54:13.518Z,29.75
2022-09-01T03:56:41.786Z,28.15
2022-09-01T03:59:17.568Z,29.23
2022-09-01T04:01:47.780Z,35.10
2022-09-01T04:04:16.669Z,30.02
2022-09-01T04:06:47.133Z,24.67
2022-09-01T04:09:16.151Z,24.98
2022-09-01T04:11:46.487Z,27.73
2022-09-01T04:14:15.611Z,28.20
2022-09-01T04:17:03.667Z,36.15
2022-09-01T04:19:37.061Z,27.60
2022-09-01T04:22:05.971Z,30.67
2022-09-01T04:24:44.452Z,29.58
2022-09-01T04:27:14.021Z,30.77
2022-09-01T04:29:41.948Z,30.02
2022-09-01T04:32:13.077Z,25.45
2022-09-01T04:34:44.466Z,32.63
2022-09-01T04:37:18.909Z,30.40
2022-09-01T04:39:56.534Z,31.77
2022-09-01T04:42:29.601Z,31.67
2022-09-01T04:45:01.964Z,30.58
2022-09-01T04:47:45.630Z,30.70
2022-09-01T04:50:18.024Z,28.70
2022-09-01T04:53:06.937Z,28.45
2022-09-01T04:55:46.335Z,30.77
2022-09-01T04:58:19.020Z,27.95
2022-09-01T05:00:48.831Z,30.58
2022-09-01T05:03:21.656Z,27.75
2022-09-01T05:06:04.223Z,30.67
2022-09-01T05:08:36.244Z,22.88
2022-09-01T05:11:09.149Z,29.50
2022-09-01T05:13:48.167Z,29.52
2022-09-01T05:16:25.003Z,27.17
2022-09-01T05:18:57.230Z,35.40
2022-09-01T05:21:29.886Z,30.35
2022-09-01T05:24:01.595Z,26.67
2022-09-01T05:26:32.388Z,24.40
2022-09-01T05:29:04.699Z,26.67
2022-09-01T05:31:37.846Z,29.08
2022-09-01T05:34:09.769Z,22.02
2022-09-01T05:36:42.059Z,30.17
2022-09-01T05:39:12.273Z,27.00
2022-09-01T05:41:42.838Z,32.47
2022-09-01T05:44:11.412Z,31.83
2022-09-01T05:46:40.108Z,31.42
2022-09-01T05:49:13.697Z,29.80
2022-09-01T05:51:45.618Z,30.92
2022-09-01T05:54:14.613Z,29.98
2022-09-01T05:56:44.823Z,40.30
2022-09-01T05:59:25.120Z,34.92
2022-09-01T06:01:56.535Z,26.40
2022-09-01T06:04:25.914Z,24.45
2022-09-01T06:07:05.999Z,28.50
2022-09-01T06:09:42.585Z,28.90
2022-09-01T06:12:19.052Z,29.42
2022-09-01T06:14:48.894Z,33.75
2022-09-01T06:17:19.713Z,37.35
2022-09-01T06:19:48.172Z,35.50
2022-09-01T06:22:17.191Z,30.70
2022-09-01T06:24:46.270Z,25.98
2022-09-01T06:27:18.187Z,36.97
2022-09-01T06:29:45.643Z,37.28
2022-09-01T06:32:13.261Z,31.70
2022-09-01T06:34:44.799Z,37.22
2022-09-01T06:37:13.516Z,31.45
2022-09-01T06:39:44.191Z,35.60
2022-09-01T06:42:14.201Z,34.00
2022-09-01T06:44:50.522Z,38.38
2022-09-01T06:47:19.926Z,38.90
2022-09-01T06:49:47.037Z,41.13
2022-09-01T06:52:24.323Z,33.33
2022-09-01T06:54:54.098Z,38.33
2022-09-01T07:02:58.419Z,41.70
2022-09-01T07:06:03.218Z,37.35
2022-09-01T07:14:27.030Z,34.38
2022-09-01T07:17:23.184Z,42.20
2022-09-01T07:19:49.012Z,38.70
2022-09-01T07:25:12.947Z,35.40
2022-09-01T07:28:01.765Z,40.25
2022-09-01T07:30:29.209Z,31.77
2022-09-01T07:32:56.200Z,40.33
2022-09-01T07:35:25.138Z,27.70
2022-09-01T07:43:53.076Z,36.00
2022-09-01T07:46:41.718Z,40.40
2022-09-01T07:49:33.855Z,47.38
2022-09-01T07:52:04.390Z,38.00
2022-09-01T07:54:34.082Z,33.30
2022-09-01T07:57:02.008Z,37.38
2022-09-01T07:59:31.819Z,38.40
2022-09-01T08:02:06.125Z,33.85
2022-09-01T08:04:35.060Z,36.05
2022-09-01T08:07:03.716Z,38.20
2022-09-01T08:09:37.561Z,38.00
2022-09-01T08:12:08.619Z,37.97
2022-09-01T08:14:44.158Z,33.30
2022-09-01T08:17:34.386Z,32.38
2022-09-01T08:20:03.191Z,34.10
2022-09-01T08:22:46.900Z,33.45
2022-09-01T08:25:31.562Z,35.92
2022-09-01T08:28:00.548Z,31.83
2022-09-01T08:30:30.131Z,29.38
2022-09-01T08:32:57.952Z,27.98
2022-09-01T08:35:25.176Z,30.35
2022-09-01T08:37:53.395Z,24.77
2022-09-01T08:40:23.808Z,26.90
2022-09-01T08:42:56.821Z,27.95
2022-09-01T08:45:38.631Z,24.42
2022-09-01T08:51:49.631Z,27.85
2022-09-01T08:54:45.522Z,27.98
2022-09-01T08:57:20.892Z,29.65
2022-09-01T09:00:24.735Z,22.55
2022-09-01T09:03:40.730Z,22.02
2022-09-01T09:06:26.699Z,28.38
2022-09-01T09:09:11.818Z,35.80
2022-09-01T09:12:04.299Z,27.88
2022-09-01T09:14:42.088Z,26.60
2022-09-01T09:17:11.407Z,27.08
2022-09-01T09:19:44.702Z,22.95
2022-09-01T09:22:21.495Z,21.92
2022-09-01T09:25:09.321Z,22.92
2022-09-01T09:27:45.894Z,22.42
2022-09-01T09:30:14.524Z,19.80
2022-09-01T09:33:25.061Z,21.23
2022-09-01T09:35:40.903Z,26.95
2022-09-01T09:38:12.296Z,17.88
2022-09-01T09:41:15.983Z,20.50
2022-09-01T09:43:58.650Z,23.55
2022-09-01T09:46:29.246Z,26.92
2022-09-01T09:49:15.517Z,19.80
2022-09-01T09:51:44.154Z,21.90
2022-09-01T09:54:13.509Z,20.52
2022-09-01T09:56:47.442Z,24.20
2022-09-01T09:59:58.733Z,22.95
2022-09-01T10:02:32.228Z,20.23
2022-09-01T10:05:00.518Z,21.08
2022-09-01T10:07:27.334Z,28.98
2022-09-01T10:09:56.210Z,28.27
2022-09-01T10:12:26.528Z,19.15
2022-09-01T10:15:12.739Z,20.33
2022-09-01T10:20:17.510Z,15.95
2022-09-01T10:22:44.974Z,22.02
2022-09-01T10:25:16.394Z,22.77
2022-09-01T10:27:46.966Z,17.83
2022-09-01T10:30:22.032Z,16.15
2022-09-01T10:32:55.647Z,18.50
2022-09-01T10:35:24.092Z,17.15
2022-09-01T10:37:51.413Z,17.73
2022-09-01T10:40:31.661Z,17.65
2022-09-01T10:43:18.986Z,15.65
2022-09-01T10:45:51.229Z,11.80
2022-09-01T10:48:33.829Z,17.75
2022-09-01T10:51:18.199Z,17.40
2022-09-01T10:53:47.012Z,21.10
2022-09-01T10:56:35.558Z,21.15
2022-09-01T11:02:22.876Z,19.05
2022-09-01T11:04:45.399Z,23.15
2022-09-01T11:07:44.468Z,16.33
2022-09-01T11:10:35.606Z,19.25
2022-09-01T11:13:21.557Z,16.80
2022-09-01T11:15:49.187Z,17.37
2022-09-01T11:18:27.564Z,16.85
2022-09-01T11:20:57.765Z,21.05
2022-09-01T11:23:27.786Z,16.35
2022-09-01T11:28:47.379Z,16.48
2022-09-01T11:31:29.323Z,20.23
2022-09-01T11:34:03.542Z,18.60
2022-09-01T11:36:30.725Z,17.02
2022-09-01T11:39:06.656Z,15.70
2022-09-01T11:41:57.453Z,24.83
2022-09-01T11:44:27.874Z,15.93
2022-09-01T11:46:58.999Z,16.55
2022-09-01T11:49:27.320Z,15.75
2022-09-01T11:51:54.173Z,15.55
2022-09-01T11:54:21.576Z,19.05
2022-09-01T11:56:48.246Z,15.65
2022-09-01T11:59:15.316Z,15.35
2022-09-01T12:01:44.111Z,18.38
2022-09-01T12:04:25.554Z,17.52
2022-09-01T12:07:00.842Z,11.60
2022-09-01T12:09:46.555Z,15.93
2022-09-01T12:12:29.996Z,11.77
2022-09-01T12:15:06.075Z,14.35
2022-09-01T12:17:33.818Z,18.55
2022-09-01T12:20:19.318Z,21.23
2022-09-01T12:22:46.126Z,15.48
2022-09-01T12:25:20.645Z,17.77
2022-09-01T12:27:47.388Z,12.18
2022-09-01T12:30:14.720Z,12.50
2022-09-01T12:32:41.728Z,13.63
2022-09-01T12:35:16.114Z,14.93
2022-09-01T12:37:42.809Z,14.70
2022-09-01T12:40:22.201Z,10.82
2022-09-01T12:42:50.073Z,17.15
2022-09-01T12:45:36.204Z,14.00
2022-09-01T12:48:03.176Z,8.32
2022-09-01T12:50:30.095Z,15.05
2022-09-01T12:52:58.382Z,11.15
2022-09-01T12:58:14.713Z,17.70
2022-09-01T13:01:03.372Z,16.58
2022-09-01T13:03:30.290Z,12.18
2022-09-01T13:05:59.271Z,11.25
2022-09-01T13:08:28.495Z,23.23
2022-09-01T13:11:05.866Z,10.93
2022-09-01T13:13:35.357Z,9.68
2022-09-01T13:16:08.632Z,11.90
2022-09-01T13:19:10.547Z,19.73
2022-09-01T13:21:22.418Z,11.65
2022-09-01T13:23:50.761Z,12.75
2022-09-01T13:26:17.975Z,23.67
2022-09-01T13:28:46.346Z,11.43
2022-09-01T13:31:29.321Z,8.68
2022-09-01T13:34:20.436Z,17.20
2022-09-01T13:36:49.400Z,11.30
2022-09-01T13:39:20.289Z,11.75
2022-09-01T13:41:47.829Z,9.63
2022-09-01T13:44:17.053Z,9.82
2022-09-01T13:47:01.034Z,10.27
2022-09-01T13:52:19.503Z,8.65
2022-09-01T13:54:47.863Z,11.50
2022-09-01T13:57:16.690Z,14.05
2022-09-01T13:59:43.964Z,13.27
2022-09-01T14:02:11.147Z,14.98
2022-09-01T14:04:38.070Z,30.63
2022-09-01T14:07:04.974Z,12.70
2022-09-01T14:09:31.906Z,12.45
2022-09-01T14:11:59.508Z,16.25
2022-09-01T14:14:26.392Z,12.68
2022-09-01T14:16:54.081Z,15.18
2022-09-01T14:19:20.914Z,14.43
2022-09-01T14:21:47.678Z,21.00
2022-09-01T14:24:15.022Z,19.77
2022-09-01T14:26:42.112Z,17.50
2022-09-01T14:29:09.313Z,18.15
2022-09-01T14:31:37.886Z,18.35
2022-09-01T14:34:05.020Z,18.75
2022-09-01T14:36:31.824Z,16.80
2022-09-01T14:38:59.554Z,17.48
2022-09-01T14:41:27.181Z,9.52
2022-09-01T14:43:57.531Z,14.05
2022-09-01T14:46:25.562Z,13.23
2022-09-01T14:48:52.384Z,12.45
2022-09-01T14:51:20.964Z,14.20
2022-09-01T14:53:47.926Z,10.57
2022-09-01T14:56:18.277Z,10.27
2022-09-01T14:58:47.261Z,11.90
2022-09-01T15:01:33.249Z,9.45
2022-09-01T15:04:00.635Z,11.43
2022-09-01T15:06:27.357Z,7.13
2022-09-01T15:08:54.095Z,7.15
2022-09-01T15:11:21.288Z,7.72
2022-09-01T15:13:52.662Z,8.52
2022-09-01T15:16:21.610Z,10.60
2022-09-01T15:18:48.345Z,16.27
2022-09-01T15:21:34.117Z,8.82
2022-09-01T15:24:01.420Z,7.38
2022-09-01T15:26:28.509Z,9.32
2022-09-01T15:28:57.021Z,10.52
2022-09-01T15:31:32.455Z,11.27
2022-09-01T15:34:01.240Z,11.20
2022-09-01T15:36:28.912Z,16.27
2022-09-01T15:38:56.205Z,14.98
2022-09-01T15:41:24.345Z,15.98
2022-09-01T15:43:51.252Z,20.38
2022-09-01T15:46:18.273Z,19.48
2022-09-01T15:48:45.287Z,14.15
2022-09-01T15:51:24.037Z,10.02
2022-09-01T15:53:51.757Z,11.82
2022-09-01T15:56:18.682Z,14.52
2022-09-01T15:59:00.667Z,9.18
2022-09-01T16:01:29.910Z,10.20
2022-09-01T16:03:56.714Z,12.82
2022-09-01T16:06:23.543Z,9.18
2022-09-01T16:08:50.993Z,9.50
2022-09-01T16:11:17.874Z,9.23
2022-09-01T16:13:44.615Z,9.35
2022-09-01T16:16:14.679Z,8.02
2022-09-01T16:18:45.991Z,9.18
2022-09-01T16:21:15.818Z,7.28
2022-09-01T16:23:45.136Z,11.75
2022-09-01T16:26:15.028Z,8.95
2022-09-01T16:28:44.993Z,8.40
2022-09-01T16:31:12.946Z,8.00
2022-09-01T16:33:39.762Z,13.00
2022-09-01T16:36:18.938Z,12.60
2022-09-01T16:38:45.679Z,22.88
2022-09-01T16:41:18.616Z,11.77
2022-09-01T16:44:00.337Z,9.43
2022-09-01T16:46:32.220Z,13.43
2022-09-01T16:49:18.167Z,11.05
2022-09-01T16:52:05.772Z,10.68
2022-09-01T16:54:51.408Z,11.73
2022-09-01T16:57:48.019Z,11.75
2022-09-01T17:00:17.087Z,9.33
2022-09-01T17:02:44.428Z,11.85
2022-09-01T17:05:25.469Z,12.38
2022-09-01T17:08:18.592Z,7.93
2022-09-01T17:11:05.500Z,9.98
2022-09-01T17:13:42.911Z,13.30
2022-09-01T17:16:22.784Z,15.68
2022-09-01T17:19:00.575Z,10.05
2022-09-01T17:21:35.228Z,19.15
2022-09-01T17:24:04.425Z,10.48
2022-09-01T17:26:31.855Z,9.82
2022-09-01T17:28:59.460Z,14.35
2022-09-01T17:31:26.402Z,14.13
2022-09-01T17:34:16.313Z,13.55
2022-09-01T17:37:02.425Z,16.52
2022-09-01T17:39:32.488Z,12.73
2022-09-01T17:42:03.685Z,18.33
2022-09-01T17:44:41.200Z,20.40
2022-09-01T17:47:19.146Z,16.52
2022-09-01T17:49:52.263Z,13.20
2022-09-01T17:52:37.946Z,15.40
2022-09-01T17:55:12.708Z,12.52
2022-09-01T17:57:42.459Z,14.70
2022-09-01T18:00:32.054Z,16.23
2022-09-01T18:03:19.043Z,18.25
2022-09-01T18:05:53.503Z,19.92
2022-09-01T18:08:35.535Z,13.23
2022-09-01T18:11:06.286Z,19.80
2022-09-01T18:13:52.233Z,19.25
2022-09-01T18:16:20.995Z,14.38
2022-09-01T18:18:49.149Z,16.45
2022-09-01T18:21:25.234Z,13.07
2022-09-01T18:23:55.342Z,14.32
2022-09-01T18:26:32.481Z,18.15
2022-09-01T18:29:00.343Z,15.20
2022-09-01T18:31:45.940Z,14.68
2022-09-01T18:34:18.783Z,23.77
2022-09-01T18:36:51.561Z,28.70
2022-09-01T18:39:29.482Z,25.50
2022-09-01T18:41:59.311Z,12.70
2022-09-01T18:44:41.310Z,19.95
2022-09-01T18:47:10.590Z,16.20
2022-09-01T18:49:55.611Z,16.55
2022-09-01T18:52:40.866Z,22.20
2022-09-01T18:55:10.381Z,20.25
2022-09-01T18:57:41.364Z,19.55
2022-09-01T19:00:31.460Z,25.10
2022-09-01T19:03:16.331Z,27.45
2022-09-01T19:05:53.406Z,21.30
2022-09-01T19:08:40.955Z,20.83
2022-09-01T19:11:23.645Z,24.50
2022-09-01T19:13:53.896Z,20.30
2022-09-01T19:16:39.492Z,25.92
2022-09-01T19:19:10.546Z,16.85
2022-09-01T19:21:37.725Z,23.80
2022-09-01T19:24:22.627Z,20.17
2022-09-01T19:26:51.525Z,13.60
2022-09-01T19:29:24.627Z,21.33
2022-09-01T19:31:58.178Z,12.57
2022-09-01T19:34:28.924Z,19.88
2022-09-01T19:36:57.186Z,13.63
2022-09-01T19:39:26.529Z,17.83
2022-09-01T19:41:58.006Z,11.27
2022-09-01T19:44:28.524Z,15.30
2022-09-01T19:47:00.368Z,17.77
2022-09-01T19:49:44.259Z,17.63
2022-09-01T19:52:18.746Z,19.48
2022-09-01T19:54:59.841Z,15.60
2022-09-01T19:57:44.458Z,21.48
2022-09-01T20:00:14.448Z,19.60
2022-09-01T20:03:04.635Z,19.80
2022-09-01T20:05:42.320Z,16.27
2022-09-01T20:08:14.631Z,16.52
2022-09-01T20:11:01.344Z,18.52
2022-09-01T20:13:38.835Z,17.17
2022-09-01T20:16:24.299Z,17.23
2022-09-01T20:18:58.373Z,22.17
2022-09-01T20:21:26.371Z,15.40
2022-09-01T20:24:08.300Z,20.20
2022-09-01T20:26:42.641Z,21.58
2022-09-01T20:29:19.115Z,17.80
2022-09-01T20:31:55.889Z,18.95
2022-09-01T20:34:42.574Z,19.85
2022-09-01T20:37:12.534Z,21.25
2022-09-01T20:40:01.440Z,19.88
2022-09-01T20:42:48.478Z,25.45
2022-09-01T20:45:18.588Z,23.55
2022-09-01T20:47:51.779Z,17.15
2022-09-01T20:50:22.007Z,21.00
2022-09-01T20:52:58.642Z,20.35
2022-09-01T20:55:41.796Z,17.70
2022-09-01T20:58:19.861Z,18.88
2022-09-01T21:00:54.087Z,18.13
2022-09-01T21:03:34.230Z,20.38
2022-09-01T21:06:07.864Z,18.40
2022-09-01T21:08:47.307Z,22.95
2022-09-01T21:11:21.654Z,22.40
2022-09-01T21:13:55.324Z,18.65
2022-09-01T21:16:37.899Z,20.73
2022-09-01T21:19:14.321Z,18.38
2022-09-01T21:22:00.193Z,20.88
2022-09-01T21:24:27.480Z,20.00
2022-09-01T21:26:56.635Z,18.95
2022-09-01T21:29:44.398Z,17.90
2022-09-01T21:32:11.929Z,19.83
2022-09-01T21:34:38.702Z,18.63
2022-09-01T21:37:05.670Z,19.15
2022-09-01T21:39:33.169Z,20.98
2022-09-01T21:42:01.046Z,19.45
2022-09-01T21:44:29.008Z,26.30
2022-09-01T21:46:56.901Z,19.20
2022-09-01T21:49:24.606Z,19.58
2022-09-01T21:51:51.834Z,21.90
2022-09-01T21:54:18.618Z,20.23
2022-09-01T21:56:46.105Z,19.83
2022-09-01T21:59:17.157Z,19.75
2022-09-01T22:01:44.529Z,21.75
2022-09-01T22:04:11.398Z,24.20
2022-09-01T22:06:39.419Z,20.38
2022-09-01T22:09:20.526Z,21.02
2022-09-01T22:11:48.859Z,19.88
2022-09-01T22:14:16.007Z,18.50
2022-09-01T22:16:42.948Z,18.15
2022-09-01T22:19:09.840Z,19.75
2022-09-01T22:21:37.418Z,18.30
2022-09-01T22:24:05.501Z,18.73
2022-09-01T22:26:33.331Z,19.55
2022-09-01T22:29:01.993Z,20.50
2022-09-01T22:31:30.648Z,21.10
2022-09-01T22:33:57.812Z,19.20
2022-09-01T22:36:38.513Z,21.17
2022-09-01T22:39:06.201Z,19.85
2022-09-01T22:41:33.899Z,20.05
2022-09-01T22:44:01.429Z,19.48
2022-09-01T22:46:28.717Z,22.83
2022-09-01T22:48:56.115Z,19.05
2022-09-01T22:51:23.186Z,19.42
2022-09-01T22:53:50.097Z,19.98
2022-09-01T22:56:20.410Z,20.40
2022-09-01T22:58:48.128Z,24.27
2022-09-01T23:01:17.223Z,20.73
2022-09-01T23:03:44.504Z,23.77
2022-09-01T23:06:12.967Z,24.17
2022-09-01T23:08:40.428Z,22.08
2022-09-01T23:11:08.983Z,20.15
2022-09-01T23:13:37.060Z,23.10
2022-09-01T23:16:04.946Z,23.00
2022-09-01T23:18:33.691Z,20.95
2022-09-01T23:21:01.259Z,19.02
2022-09-01T23:23:29.969Z,19.50
2022-09-01T23:25:56.770Z,19.92
2022-09-01T23:28:23.886Z,18.70
2022-09-01T23:30:51.947Z,20.58
2022-09-01T23:33:20.070Z,21.75
2022-09-01T23:35:48.439Z,18.00
2022-09-01T23:38:18.313Z,21.45
2022-09-01T23:40:47.029Z,17.17
2022-09-01T23:43:14.903Z,20.60
2022-09-01T23:45:42.969Z,22.25
2022-09-01T23:48:13.145Z,21.33
2022-09-01T23:50:43.786Z,21.90
2022-09-01T23:53:11.076Z,21.95
2022-09-01T23:55:45.643Z,23.10
2022-09-01T23:58:13.342Z,20.83
